Time;durP1;ratioP1;P1;durP2;ratioP2;P2;SDS_P1;SDS_P2;PMS_P1;PMS_P2;Temp;Humidity;BMP_temperature;BMP_pressure;BME280_temperature;BME280_humidity;BME280_pressure;Samples;Min_cycle;Max_cycle;Signal;HPM_P1;HPM_P2
2023/12/08 00:01:29;;;;;;;0.10;0.10;;;2.50;99.90;;;;;;5094495;28;20168;-69
2023/12/08 00:03:55;;;;;;;0.05;0.05;;;2.50;99.90;;;;;;5094741;28;20172;-69
2023/12/08 00:06:20;;;;;;;0.00;0.00;;;2.50;99.90;;;;;;5106421;28;20538;-66
2023/12/08 00:08:46;;;;;;;0.00;0.00;;;2.50;99.90;;;;;;5114569;28;20586;-68
2023/12/08 00:11:11;;;;;;;0.00;0.00;;;2.50;99.90;;;;;;5114529;28;20176;-67
2023/12/08 00:13:37;;;;;;;0.00;0.00;;;2.50;99.90;;;;;;5112675;28;20207;-66
2023/12/08 00:16:03;;;;;;;0.15;0.15;;;2.50;99.90;;;;;;5103336;28;20176;-65
2023/12/08 00:18:29;;;;;;;0.00;0.00;;;2.50;99.90;;;;;;5094497;28;20257;-66
2023/12/08 00:20:54;;;;;;;0.00;0.00;;;2.50;99.90;;;;;;5096978;28;20525;-68
2023/12/08 00:23:20;;;;;;;0.10;0.10;;;2.50;99.90;;;;;;5098951;28;20619;-66
2023/12/08 00:25:45;;;;;;;0.00;0.00;;;2.50;99.90;;;;;;5108680;28;20176;-67
2023/12/08 00:28:11;;;;;;;0.00;0.00;;;2.50;99.90;;;;;;5106587;27;20577;-68
2023/12/08 00:30:36;;;;;;;0.10;0.10;;;2.50;99.90;;;;;;5099732;28;20190;-68
2023/12/08 00:33:02;;;;;;;0.00;0.00;;;2.60;99.90;;;;;;5109577;28;20304;-68
2023/12/08 00:35:28;;;;;;;0.00;0.00;;;2.60;99.90;;;;;;5094477;28;20172;-67
2023/12/08 00:37:54;;;;;;;0.10;0.10;;;2.60;99.90;;;;;;5094449;28;20684;-67
2023/12/08 00:40:19;;;;;;;0.00;0.00;;;2.60;99.90;;;;;;5094046;28;20276;-67
2023/12/08 00:42:45;;;;;;;0.00;0.00;;;2.60;99.90;;;;;;5093139;28;20664;-66
2023/12/08 00:45:10;;;;;;;0.00;0.00;;;2.60;99.90;;;;;;5094002;28;20593;-68
2023/12/08 00:47:36;;;;;;;0.00;0.00;;;2.70;99.90;;;;;;5100362;28;20198;-68
2023/12/08 00:50:01;;;;;;;0.43;0.43;;;2.70;99.90;;;;;;5113869;28;20187;-68
2023/12/08 00:52:27;;;;;;;0.05;0.05;;;2.70;99.90;;;;;;5112752;28;20223;-68
2023/12/08 00:54:52;;;;;;;0.00;0.00;;;2.70;99.90;;;;;;5097397;28;20184;-68
2023/12/08 00:57:18;;;;;;;0.00;0.00;;;2.70;99.90;;;;;;5093655;28;20176;-68
2023/12/08 00:59:44;;;;;;;0.28;0.28;;;2.70;99.90;;;;;;5100755;28;20172;-69
2023/12/08 01:02:09;;;;;;;0.10;0.10;;;2.70;99.90;;;;;;5107878;28;20187;-68
2023/12/08 01:04:35;;;;;;;0.00;0.00;;;2.70;99.90;;;;;;5105396;28;20223;-68
2023/12/08 01:07:00;;;;;;;0.20;0.20;;;2.80;99.90;;;;;;5110808;28;20258;-68
2023/12/08 01:09:26;;;;;;;0.10;0.10;;;2.80;99.90;;;;;;5109390;28;20193;-69
2023/12/08 01:11:52;;;;;;;0.00;0.00;;;2.70;99.90;;;;;;5113450;28;20199;-68
2023/12/08 01:14:17;;;;;;;0.00;0.00;;;2.70;99.90;;;;;;5111811;28;20215;-68
2023/12/08 01:16:43;;;;;;;0.00;0.00;;;2.70;99.90;;;;;;5111706;28;20215;-68
2023/12/08 01:19:10;;;;;;;0.00;0.00;;;2.70;99.90;;;;;;5099979;28;20195;-68
2023/12/08 01:21:37;;;;;;;0.00;0.00;;;2.80;99.90;;;;;;5107428;28;20639;-68
2023/12/08 01:24:03;;;;;;;0.00;0.00;;;2.70;99.90;;;;;;5095219;28;20188;-68
2023/12/08 01:26:28;;;;;;;0.13;0.13;;;2.70;99.90;;;;;;5093122;28;20231;-68
2023/12/08 01:28:54;;;;;;;0.10;0.10;;;2.60;99.90;;;;;;5109231;28;20184;-66
2023/12/08 01:31:19;;;;;;;0.08;0.08;;;2.60;99.90;;;;;;5095680;28;20639;-68
2023/12/08 01:33:45;;;;;;;0.20;0.20;;;2.60;99.90;;;;;;5106361;28;20219;-68
2023/12/08 01:36:11;;;;;;;0.10;0.10;;;2.60;99.90;;;;;;5102564;28;20223;-68
2023/12/08 01:38:37;;;;;;;0.00;0.00;;;2.60;99.90;;;;;;5099250;28;20647;-68
2023/12/08 01:41:02;;;;;;;0.00;0.00;;;2.60;99.90;;;;;;5108969;28;20171;-68
2023/12/08 01:43:28;;;;;;;0.00;0.00;;;2.60;99.90;;;;;;5096684;28;20544;-67
2023/12/08 01:45:57;;;;;;;0.00;0.00;;;2.60;99.90;;;;;;5103865;28;20658;-68
2023/12/08 01:48:24;;;;;;;0.43;0.43;;;2.50;99.90;;;;;;5102625;28;20227;-68
2023/12/08 01:50:49;;;;;;;0.00;0.00;;;2.50;99.90;;;;;;5108176;28;20252;-69
2023/12/08 01:53:15;;;;;;;0.00;0.00;;;2.50;99.90;;;;;;5111535;28;20222;-68
2023/12/08 01:55:40;;;;;;;0.10;0.10;;;2.50;99.90;;;;;;5112603;28;20623;-68
2023/12/08 01:58:07;;;;;;;0.00;0.00;;;2.50;99.90;;;;;;5112386;28;20649;-68
2023/12/08 02:00:33;;;;;;;0.10;0.10;;;2.50;99.90;;;;;;5102202;28;20184;-69
2023/12/08 02:02:59;;;;;;;0.00;0.00;;;2.60;99.90;;;;;;5096231;28;20194;-69
2023/12/08 02:05:26;;;;;;;0.20;0.20;;;2.60;99.90;;;;;;5092294;28;20182;-68
2023/12/08 02:07:53;;;;;;;0.00;0.00;;;2.60;99.90;;;;;;5092441;28;20635;-69
2023/12/08 02:10:19;;;;;;;0.00;0.00;;;2.60;99.90;;;;;;5102354;28;20658;-69
2023/12/08 02:12:45;;;;;;;0.00;0.00;;;2.60;99.90;;;;;;5098228;28;20237;-69
2023/12/08 02:15:12;;;;;;;0.00;0.00;;;2.70;99.90;;;;;;5105798;28;20175;-68
2023/12/08 02:17:38;;;;;;;0.00;0.00;;;2.70;99.90;;;;;;5098734;28;20176;-68
2023/12/08 02:20:10;;;;;;;0.00;0.00;;;2.70;99.90;;;;;;5105027;28;20189;-69
2023/12/08 02:22:36;;;;;;;0.00;0.00;;;2.80;99.90;;;;;;5092396;28;20184;-68
2023/12/08 02:25:02;;;;;;;0.22;0.22;;;2.70;99.90;;;;;;5093218;28;20178;-68
2023/12/08 02:27:28;;;;;;;0.00;0.00;;;2.70;99.90;;;;;;5108509;28;20191;-68
2023/12/08 02:29:54;;;;;;;0.00;0.00;;;2.70;99.90;;;;;;5091984;28;20705;-68
2023/12/08 02:32:36;;;;;;;0.00;0.00;;;2.70;99.90;;;;;;5100519;28;20568;-68
2023/12/08 02:35:06;;;;;;;0.00;0.00;;;2.70;99.90;;;;;;5095806;28;20187;-69
2023/12/08 02:37:36;;;;;;;0.00;0.00;;;2.70;99.90;;;;;;5095155;28;20218;-68
2023/12/08 02:40:04;;;;;;;0.00;0.00;;;2.70;99.90;;;;;;5099439;28;20183;-69
2023/12/08 02:42:30;;;;;;;0.00;0.00;;;2.70;99.90;;;;;;5110881;28;20176;-68
2023/12/08 02:44:56;;;;;;;0.10;0.10;;;2.70;99.90;;;;;;5106050;28;20180;-67
2023/12/08 02:47:21;;;;;;;0.00;0.00;;;2.70;99.90;;;;;;5092462;28;20764;-68
2023/12/08 02:49:47;;;;;;;0.00;0.00;;;2.70;99.90;;;;;;5106477;28;20250;-68
2023/12/08 02:52:12;;;;;;;0.00;0.00;;;2.70;99.90;;;;;;5091748;28;20744;-68
2023/12/08 02:54:38;;;;;;;0.10;0.10;;;2.70;99.90;;;;;;5104966;28;20224;-68
2023/12/08 02:57:03;;;;;;;0.00;0.00;;;2.70;99.90;;;;;;5095835;28;20192;-68
2023/12/08 02:59:29;;;;;;;0.10;0.10;;;2.70;99.90;;;;;;5092105;28;20268;-67
2023/12/08 03:01:54;;;;;;;0.00;0.00;;;2.70;99.90;;;;;;5091827;28;20168;-68
2023/12/08 03:04:20;;;;;;;0.10;0.10;;;2.70;99.90;;;;;;5091788;28;20180;-68
2023/12/08 03:06:45;;;;;;;0.47;0.22;;;2.70;99.90;;;;;;5104957;28;20213;-68
2023/12/08 03:09:11;;;;;;;0.00;0.00;;;2.70;99.90;;;;;;5099992;28;20188;-68
2023/12/08 03:11:37;;;;;;;0.25;0.25;;;2.70;99.90;;;;;;5094656;28;20187;-69
2023/12/08 03:14:02;;;;;;;0.00;0.00;;;2.70;99.90;;;;;;5104584;28;20187;-68
2023/12/08 03:16:28;;;;;;;1.10;0.32;;;2.70;99.90;;;;;;5091229;28;20180;-69
2023/12/08 03:18:53;;;;;;;0.00;0.00;;;2.70;99.90;;;;;;5103256;28;20183;-69
2023/12/08 03:21:22;;;;;;;0.00;0.00;;;2.70;99.90;;;;;;5094143;28;20667;-69
2023/12/08 03:23:48;;;;;;;0.00;0.00;;;2.70;99.90;;;;;;5106920;28;20169;-68
2023/12/08 03:26:13;;;;;;;0.00;0.00;;;2.70;99.90;;;;;;5098758;28;20208;-68
2023/12/08 03:28:39;;;;;;;0.00;0.00;;;2.70;99.90;;;;;;5099543;28;20672;-69
2023/12/08 03:31:05;;;;;;;0.20;0.20;;;2.70;99.90;;;;;;5105556;28;20244;-68
2023/12/08 03:33:30;;;;;;;0.05;0.05;;;2.70;99.90;;;;;;5093929;28;20368;-68
2023/12/08 03:35:56;;;;;;;0.00;0.00;;;2.70;99.90;;;;;;5105558;28;20669;-68
2023/12/08 03:38:21;;;;;;;0.00;0.00;;;2.70;99.90;;;;;;5099281;28;20215;-68
2023/12/08 03:40:47;;;;;;;0.00;0.00;;;2.70;99.90;;;;;;5092451;28;20179;-69
2023/12/08 03:43:12;;;;;;;0.00;0.00;;;2.60;99.90;;;;;;5092452;28;20313;-69
2023/12/08 03:45:38;;;;;;;0.00;0.00;;;2.70;99.90;;;;;;5096555;28;20391;-68
2023/12/08 03:48:03;;;;;;;0.08;0.08;;;2.60;99.90;;;;;;5106482;28;20190;-69
2023/12/08 03:50:29;;;;;;;0.00;0.00;;;2.70;99.90;;;;;;5097565;28;20191;-68
2023/12/08 03:52:55;;;;;;;0.00;0.00;;;2.70;99.90;;;;;;5091846;28;20265;-68
2023/12/08 03:55:22;;;;;;;0.00;0.00;;;2.60;99.90;;;;;;5098003;28;20184;-68
2023/12/08 03:57:48;;;;;;;0.00;0.00;;;2.60;99.90;;;;;;5112418;28;20221;-68
2023/12/08 04:00:14;;;;;;;0.00;0.00;;;2.70;99.90;;;;;;5103425;28;20171;-69
2023/12/08 04:02:40;;;;;;;0.00;0.00;;;2.70;99.90;;;;;;5104235;28;20210;-68
2023/12/08 04:05:05;;;;;;;0.08;0.08;;;2.70;99.90;;;;;;5108046;28;20187;-68
2023/12/08 04:07:31;;;;;;;0.00;0.00;;;2.70;99.90;;;;;;5103130;28;20700;-68
2023/12/08 04:09:56;;;;;;;0.00;0.00;;;2.70;99.90;;;;;;5102933;28;20573;-68
2023/12/08 04:12:22;;;;;;;0.00;0.00;;;2.70;99.90;;;;;;5103500;28;20210;-68
2023/12/08 04:14:48;;;;;;;0.00;0.00;;;2.70;99.90;;;;;;5104102;28;20235;-68
2023/12/08 04:17:13;;;;;;;0.00;0.00;;;2.70;99.90;;;;;;5098920;28;20258;-68
2023/12/08 04:19:39;;;;;;;0.30;0.30;;;2.70;99.90;;;;;;5102515;28;20191;-68
2023/12/08 04:22:05;;;;;;;0.00;0.00;;;2.70;99.90;;;;;;5108639;28;20180;-68
2023/12/08 04:24:30;;;;;;;0.00;0.00;;;2.70;99.90;;;;;;5102619;28;20182;-68
2023/12/08 04:26:56;;;;;;;0.00;0.00;;;2.70;99.90;;;;;;5101580;28;20211;-69
2023/12/08 04:29:21;;;;;;;0.00;0.00;;;2.80;99.90;;;;;;5109661;28;20172;-68
2023/12/08 04:31:47;;;;;;;0.00;0.00;;;2.70;99.90;;;;;;5096368;28;20219;-69
2023/12/08 04:34:12;;;;;;;0.00;0.00;;;2.80;99.90;;;;;;5107845;28;20188;-69
2023/12/08 04:36:38;;;;;;;0.00;0.00;;;2.80;99.90;;;;;;5102947;28;20686;-68
2023/12/08 04:39:04;;;;;;;0.00;0.00;;;2.80;99.90;;;;;;5100559;28;20195;-69
2023/12/08 04:41:29;;;;;;;0.00;0.00;;;2.80;99.90;;;;;;5093793;28;20172;-68
2023/12/08 04:43:55;;;;;;;0.00;0.00;;;2.80;99.90;;;;;;5097767;28;20708;-69
2023/12/08 04:46:20;;;;;;;0.00;0.00;;;2.90;99.90;;;;;;5106457;28;20184;-68
2023/12/08 04:48:46;;;;;;;0.43;0.22;;;2.80;99.90;;;;;;5103821;28;20225;-69
2023/12/08 04:51:11;;;;;;;0.00;0.00;;;2.80;99.90;;;;;;5099688;28;20221;-68
2023/12/08 04:53:37;;;;;;;0.00;0.00;;;2.80;99.90;;;;;;5094484;28;20223;-68
2023/12/08 04:56:02;;;;;;;0.00;0.00;;;2.90;99.90;;;;;;5111218;28;20168;-67
2023/12/08 04:58:28;;;;;;;0.00;0.00;;;2.90;99.90;;;;;;5105774;28;20180;-69
2023/12/08 05:00:54;;;;;;;0.00;0.00;;;2.90;99.90;;;;;;5110148;28;20619;-69
2023/12/08 05:03:22;;;;;;;0.00;0.00;;;2.90;99.90;;;;;;5112799;28;20182;-68
2023/12/08 05:05:47;;;;;;;0.10;0.10;;;2.90;99.90;;;;;;5095630;28;20640;-68
2023/12/08 05:08:13;;;;;;;0.00;0.00;;;2.90;99.90;;;;;;5111166;28;20202;-66
2023/12/08 05:10:38;;;;;;;0.00;0.00;;;2.90;99.90;;;;;;5102876;28;20539;-66
2023/12/08 05:13:04;;;;;;;0.00;0.00;;;2.90;99.90;;;;;;5100479;28;20235;-65
2023/12/08 05:15:29;;;;;;;0.00;0.00;;;2.80;99.90;;;;;;5108457;28;20176;-65
2023/12/08 05:17:55;;;;;;;0.00;0.00;;;2.80;99.90;;;;;;5095839;28;20549;-65
2023/12/08 05:20:20;;;;;;;0.00;0.00;;;2.80;99.90;;;;;;5095052;28;20639;-65
2023/12/08 05:22:46;;;;;;;0.10;0.10;;;2.80;99.90;;;;;;5102162;28;20216;-66
2023/12/08 05:25:12;;;;;;;0.00;0.00;;;2.80;99.90;;;;;;5098255;28;20538;-66
2023/12/08 05:27:38;;;;;;;0.00;0.00;;;2.80;99.90;;;;;;5109023;28;20544;-65
2023/12/08 05:30:04;;;;;;;0.00;0.00;;;2.80;99.90;;;;;;5095622;28;20271;-65
2023/12/08 05:32:29;;;;;;;0.00;0.00;;;2.80;99.90;;;;;;5105233;28;20679;-66
2023/12/08 05:34:55;;;;;;;0.00;0.00;;;2.80;99.90;;;;;;5101697;28;20197;-66
2023/12/08 05:37:20;;;;;;;0.00;0.00;;;2.80;99.90;;;;;;5099222;28;20224;-65
2023/12/08 05:39:47;;;;;;;0.00;0.00;;;2.80;99.90;;;;;;5092787;28;20210;-65
2023/12/08 05:42:12;;;;;;;0.32;0.32;;;2.80;99.90;;;;;;5094002;28;20199;-65
2023/12/08 05:44:38;;;;;;;0.00;0.00;;;2.70;99.90;;;;;;5100512;28;20627;-65
2023/12/08 05:47:03;;;;;;;0.00;0.00;;;2.70;99.90;;;;;;5100709;28;20212;-65
2023/12/08 05:49:29;;;;;;;0.00;0.00;;;2.70;99.90;;;;;;5105325;28;20176;-64
2023/12/08 05:51:54;;;;;;;0.10;0.10;;;2.70;99.90;;;;;;5104601;28;20190;-65
2023/12/08 05:54:20;;;;;;;0.10;0.03;;;2.70;99.90;;;;;;5107026;28;20209;-64
2023/12/08 05:56:45;;;;;;;0.00;0.00;;;2.80;99.90;;;;;;5101365;28;20262;-65
2023/12/08 05:59:11;;;;;;;0.25;0.25;;;2.80;99.90;;;;;;5099917;28;20540;-65
2023/12/08 06:01:36;;;;;;;0.00;0.00;;;2.80;99.90;;;;;;5097272;28;20223;-65
2023/12/08 06:04:02;;;;;;;0.10;0.10;;;2.80;99.90;;;;;;5108715;28;20199;-65
2023/12/08 06:06:27;;;;;;;0.38;0.38;;;2.80;99.90;;;;;;5098109;28;20409;-65
2023/12/08 06:08:53;;;;;;;0.00;0.00;;;2.80;99.90;;;;;;5102791;28;20627;-65
2023/12/08 06:11:19;;;;;;;0.00;0.00;;;2.80;99.90;;;;;;5098783;28;20245;-65
2023/12/08 06:13:45;;;;;;;1.75;0.40;;;2.80;99.90;;;;;;5108303;28;20698;-64
2023/12/08 06:16:10;;;;;;;0.00;0.00;;;2.70;99.90;;;;;;5095036;28;20181;-64
2023/12/08 06:18:36;;;;;;;0.10;0.10;;;2.70;99.90;;;;;;5105898;28;20527;-65
2023/12/08 06:21:01;;;;;;;0.20;0.20;;;2.70;99.90;;;;;;5111479;28;20737;-65
2023/12/08 06:23:27;;;;;;;0.30;0.30;;;2.70;99.90;;;;;;5097992;28;20180;-65
2023/12/08 06:25:52;;;;;;;0.00;0.00;;;2.70;99.90;;;;;;5107160;28;20175;-64
2023/12/08 06:28:18;;;;;;;0.10;0.10;;;2.60;99.90;;;;;;5107229;28;20528;-65
2023/12/08 06:30:43;;;;;;;0.00;0.00;;;2.60;99.90;;;;;;5099806;28;20211;-64
2023/12/08 06:33:09;;;;;;;0.00;0.00;;;2.60;99.90;;;;;;5100474;28;20223;-67
2023/12/08 06:35:34;;;;;;;0.10;0.10;;;2.60;99.90;;;;;;5101021;28;20185;-65
2023/12/08 06:38:00;;;;;;;0.03;0.03;;;2.60;99.90;;;;;;5102421;28;20195;-66
2023/12/08 06:40:25;;;;;;;0.22;0.22;;;2.60;99.90;;;;;;5105036;28;20266;-65
2023/12/08 06:42:51;;;;;;;0.08;0.08;;;2.50;99.90;;;;;;5091585;28;20172;-65
2023/12/08 06:45:17;;;;;;;0.00;0.00;;;2.60;99.90;;;;;;5098151;28;20171;-65
2023/12/08 06:47:42;;;;;;;0.10;0.10;;;2.60;99.90;;;;;;5111598;28;20654;-65
2023/12/08 06:50:08;;;;;;;0.45;0.45;;;2.50;99.90;;;;;;5111452;28;20171;-64
2023/12/08 06:52:33;;;;;;;0.00;0.00;;;2.50;99.90;;;;;;5111640;28;20207;-65
2023/12/08 06:54:59;;;;;;;0.00;0.00;;;2.50;99.90;;;;;;5111611;28;20186;-64
2023/12/08 06:57:25;;;;;;;0.03;0.03;;;2.50;99.90;;;;;;5103736;28;20172;-65
2023/12/08 06:59:52;;;;;;;0.00;0.00;;;2.50;99.90;;;;;;5103806;28;20214;-66
2023/12/08 07:02:17;;;;;;;0.25;0.25;;;2.50;99.90;;;;;;5111508;28;20175;-65
2023/12/08 07:04:43;;;;;;;0.25;0.25;;;2.50;99.90;;;;;;5111615;28;20596;-65
2023/12/08 07:07:09;;;;;;;1.27;0.85;;;2.50;99.90;;;;;;5111552;28;20241;-65
2023/12/08 07:09:34;;;;;;;0.00;0.00;;;2.50;99.90;;;;;;5101807;28;20184;-65
2023/12/08 07:12:00;;;;;;;0.10;0.10;;;2.40;99.90;;;;;;5090999;28;20188;-65
2023/12/08 07:14:25;;;;;;;0.00;0.00;;;2.50;99.90;;;;;;5091159;28;20187;-65
2023/12/08 07:16:50;;;;;;;0.05;0.05;;;2.50;99.90;;;;;;5091006;28;20179;-65
2023/12/08 07:19:16;;;;;;;0.10;0.10;;;2.50;99.90;;;;;;5091080;28;20548;-65
2023/12/08 07:21:43;;;;;;;0.00;0.00;;;2.50;99.90;;;;;;5089698;28;20199;-66
2023/12/08 07:24:09;;;;;;;0.00;0.00;;;2.40;99.90;;;;;;5089639;28;20207;-66
2023/12/08 07:26:34;;;;;;;0.10;0.10;;;2.50;99.90;;;;;;5091016;28;20604;-66
2023/12/08 07:29:00;;;;;;;0.38;0.38;;;2.50;99.90;;;;;;5093162;28;20266;-65
2023/12/08 07:31:25;;;;;;;0.32;0.32;;;2.50;99.90;;;;;;5094891;28;20229;-65
2023/12/08 07:33:51;;;;;;;0.25;0.25;;;2.50;99.90;;;;;;5094826;28;20219;-65
2023/12/08 07:36:16;;;;;;;0.00;0.00;;;2.40;99.90;;;;;;5094627;28;20224;-65
2023/12/08 07:38:42;;;;;;;0.00;0.00;;;2.40;99.90;;;;;;5094783;28;20180;-66
2023/12/08 07:41:07;;;;;;;0.00;0.00;;;2.40;99.90;;;;;;5094743;28;20172;-66
2023/12/08 07:43:35;;;;;;;0.00;0.00;;;2.40;99.90;;;;;;5094758;28;20176;-65
2023/12/08 07:46:00;;;;;;;0.00;0.00;;;2.40;99.90;;;;;;5094988;28;20183;-65
2023/12/08 07:48:26;;;;;;;0.00;0.00;;;2.40;99.90;;;;;;5094751;28;20226;-65
2023/12/08 07:50:51;;;;;;;0.00;0.00;;;2.40;99.90;;;;;;5094661;28;20176;-66
2023/12/08 07:53:17;;;;;;;0.00;0.00;;;2.40;99.90;;;;;;5093225;28;20204;-65
2023/12/08 07:55:42;;;;;;;0.05;0.05;;;2.40;99.90;;;;;;5094397;28;20190;-65
2023/12/08 07:58:08;;;;;;;0.25;0.25;;;2.50;99.90;;;;;;5094448;28;20249;-65
2023/12/08 08:00:34;;;;;;;0.20;0.20;;;2.50;99.90;;;;;;5094622;28;20640;-65
2023/12/08 08:02:59;;;;;;;0.00;0.00;;;2.40;99.90;;;;;;5094478;28;20176;-65
2023/12/08 08:05:25;;;;;;;0.13;0.00;;;2.50;99.90;;;;;;5094469;28;20176;-65
2023/12/08 08:07:51;;;;;;;0.10;0.10;;;2.50;99.90;;;;;;5094488;28;20168;-66
2023/12/08 08:10:16;;;;;;;0.08;0.08;;;2.50;99.90;;;;;;5094266;28;20215;-64
2023/12/08 08:12:42;;;;;;;0.00;0.00;;;2.50;99.90;;;;;;5105213;28;20222;-63
2023/12/08 08:15:08;;;;;;;0.00;0.00;;;2.40;99.90;;;;;;5093874;28;20219;-64
2023/12/08 08:17:34;;;;;;;0.10;0.10;;;2.40;99.90;;;;;;5102253;28;20187;-64
2023/12/08 08:19:59;;;;;;;0.00;0.00;;;2.50;99.90;;;;;;5101385;28;20194;-65
2023/12/08 08:22:25;;;;;;;0.10;0.10;;;2.50;99.90;;;;;;5110590;28;20539;-64
2023/12/08 08:24:50;;;;;;;0.00;0.00;;;2.40;99.90;;;;;;5097364;28;20253;-65
2023/12/08 08:27:16;;;;;;;0.00;0.00;;;2.40;99.90;;;;;;5107831;28;20188;-65
2023/12/08 08:29:41;;;;;;;0.00;0.00;;;2.40;99.90;;;;;;5094411;28;20697;-66
2023/12/08 08:32:07;;;;;;;0.00;0.00;;;2.50;99.90;;;;;;5107132;28;20260;-65
2023/12/08 08:34:32;;;;;;;0.20;0.20;;;2.50;99.90;;;;;;5113326;28;20187;-64
2023/12/08 08:36:58;;;;;;;0.25;0.25;;;2.50;99.90;;;;;;5097558;28;20548;-64
2023/12/08 08:39:24;;;;;;;0.08;0.08;;;2.50;99.90;;;;;;5112669;28;20179;-65
2023/12/08 08:41:50;;;;;;;0.10;0.10;;;2.50;99.90;;;;;;5102667;28;20643;-64
2023/12/08 08:44:15;;;;;;;0.00;0.00;;;2.50;99.90;;;;;;5093290;28;20212;-65
2023/12/08 08:46:41;;;;;;;0.40;0.40;;;2.50;99.90;;;;;;5110359;28;20690;-65
2023/12/08 08:49:08;;;;;;;0.80;0.80;;;2.60;99.90;;;;;;5098314;28;20182;-65
2023/12/08 08:51:34;;;;;;;0.00;0.00;;;2.60;99.90;;;;;;5106642;28;20572;-65
2023/12/08 08:54:00;;;;;;;0.00;0.00;;;2.60;99.90;;;;;;5106044;28;20215;-65
2023/12/08 08:56:26;;;;;;;0.10;0.10;;;2.60;99.90;;;;;;5114099;28;20179;-65
2023/12/08 08:58:53;;;;;;;0.28;0.28;;;2.60;99.90;;;;;;5094356;28;20176;-65
2023/12/08 09:01:18;;;;;;;0.00;0.00;;;2.60;99.90;;;;;;5093569;28;20179;-65
2023/12/08 09:03:44;;;;;;;0.30;0.30;;;2.70;99.90;;;;;;5105562;28;20179;-64
2023/12/08 09:06:09;;;;;;;0.45;0.20;;;2.60;99.90;;;;;;5113751;28;20194;-64
2023/12/08 09:08:35;;;;;;;0.00;0.00;;;2.70;99.90;;;;;;5113849;28;20661;-64
2023/12/08 09:11:01;;;;;;;0.08;0.08;;;2.70;99.90;;;;;;5094433;28;20653;-64
2023/12/08 09:13:29;;;;;;;0.00;0.00;;;2.70;99.90;;;;;;5093073;28;20219;-65
2023/12/08 09:15:54;;;;;;;0.00;0.00;;;2.80;99.90;;;;;;5093513;28;20526;-64
2023/12/08 09:18:20;;;;;;;0.00;0.00;;;2.90;99.90;;;;;;5091944;28;20180;-64
2023/12/08 09:20:46;;;;;;;0.17;0.17;;;2.90;99.90;;;;;;5112641;28;20258;-65
2023/12/08 09:23:12;;;;;;;0.00;0.00;;;2.90;99.90;;;;;;5113359;28;20186;-64
2023/12/08 09:25:37;;;;;;;0.13;0.13;;;3.00;99.90;;;;;;5113481;28;20680;-64
2023/12/08 09:28:04;;;;;;;0.00;0.00;;;3.00;99.90;;;;;;5113247;28;20648;-64
2023/12/08 09:30:30;;;;;;;0.00;0.00;;;3.00;99.90;;;;;;5112097;28;20201;-65
2023/12/08 09:32:55;;;;;;;0.00;0.00;;;3.10;99.90;;;;;;5113235;28;20568;-64
2023/12/08 09:35:21;;;;;;;0.00;0.00;;;3.10;99.90;;;;;;5111830;28;20171;-65
2023/12/08 09:37:46;;;;;;;0.00;0.00;;;3.10;99.90;;;;;;5112022;28;21018;-65
2023/12/08 09:40:15;;;;;;;0.10;0.10;;;3.10;99.90;;;;;;5112988;28;20175;-64
2023/12/08 09:42:55;;;;;;;0.10;0.10;;;3.20;99.90;;;;;;5112897;28;20577;-65
2023/12/08 09:45:21;;;;;;;0.00;0.00;;;3.20;99.90;;;;;;5093534;28;20173;-64
2023/12/08 09:47:49;;;;;;;0.00;0.00;;;3.20;99.90;;;;;;5113035;28;20622;-64
2023/12/08 09:50:15;;;;;;;0.00;0.00;;;3.30;99.90;;;;;;5108210;28;20267;-64
2023/12/08 09:52:43;;;;;;;0.10;0.10;;;3.30;99.90;;;;;;5111933;28;20293;-65
2023/12/08 09:55:10;;;;;;;0.28;0.28;;;3.30;99.90;;;;;;5112750;28;20183;-65
2023/12/08 09:57:37;;;;;;;0.00;0.00;;;3.40;99.90;;;;;;5112805;28;20175;-65
2023/12/08 10:00:13;;;;;;;0.00;0.00;;;3.40;99.90;;;;;;5112652;28;20233;-64
2023/12/08 10:02:39;;;;;;;0.00;0.00;;;3.40;99.90;;;;;;5112827;28;20608;-64
2023/12/08 10:05:06;;;;;;;0.25;0.25;;;3.40;99.90;;;;;;5112746;28;20575;-65
2023/12/08 10:07:33;;;;;;;0.05;0.05;;;3.40;99.90;;;;;;5112705;28;20228;-65
2023/12/08 10:10:02;;;;;;;0.10;0.10;;;3.40;99.90;;;;;;5112555;28;20182;-65
2023/12/08 10:12:28;;;;;;;0.00;0.00;;;3.40;99.90;;;;;;5112884;28;20689;-66
2023/12/08 10:14:58;;;;;;;0.00;0.00;;;3.40;99.90;;;;;;5093309;28;20227;-66
2023/12/08 10:17:24;;;;;;;0.00;0.00;;;3.40;99.90;;;;;;5092222;28;20168;-64
2023/12/08 10:19:53;;;;;;;0.00;0.00;;;3.40;99.90;;;;;;5103562;28;20175;-65
2023/12/08 10:22:19;;;;;;;0.28;0.28;;;3.50;99.90;;;;;;5112361;28;20708;-64
2023/12/08 10:24:45;;;;;;;0.00;0.00;;;3.50;99.90;;;;;;5112423;28;20176;-65
2023/12/08 10:27:11;;;;;;;0.00;0.00;;;3.50;99.90;;;;;;5110951;28;20232;-65
2023/12/08 10:29:37;;;;;;;0.00;0.00;;;3.50;99.90;;;;;;5112333;28;20562;-65
2023/12/08 10:32:06;;;;;;;0.00;0.00;;;3.50;99.90;;;;;;5112111;28;20570;-65
2023/12/08 10:34:32;;;;;;;0.00;0.00;;;3.60;99.90;;;;;;5112082;28;20172;-65
2023/12/08 10:36:57;;;;;;;0.00;0.00;;;3.50;99.90;;;;;;5112105;28;20223;-66
2023/12/08 10:39:24;;;;;;;0.00;0.00;;;3.60;99.90;;;;;;5112176;28;20227;-65
2023/12/08 10:41:53;;;;;;;0.00;0.00;;;3.60;99.90;;;;;;5111385;28;20654;-65
2023/12/08 10:44:21;;;;;;;0.00;0.00;;;3.60;99.90;;;;;;5095917;28;20188;-62
2023/12/08 10:46:50;;;;;;;0.00;0.00;;;3.60;99.90;;;;;;5097397;28;20665;-65
2023/12/08 10:49:19;;;;;;;0.55;0.55;;;3.70;99.90;;;;;;5090278;28;20184;-65
2023/12/08 10:51:47;;;;;;;0.00;0.00;;;3.70;99.90;;;;;;5090105;28;20168;-63
2023/12/08 10:54:16;;;;;;;0.00;0.00;;;3.80;99.90;;;;;;5102087;28;20214;-62
2023/12/08 10:56:42;;;;;;;0.00;0.00;;;3.80;99.90;;;;;;5097774;28;20172;-64
2023/12/08 10:59:10;;;;;;;0.00;0.00;;;3.90;99.90;;;;;;5091696;28;20281;-65
2023/12/08 11:01:37;;;;;;;0.10;0.10;;;3.90;99.90;;;;;;5099007;28;20212;-65
2023/12/08 11:04:08;;;;;;;0.00;0.00;;;3.90;99.90;;;;;;5112838;28;20167;-65
2023/12/08 11:06:36;;;;;;;0.10;0.10;;;3.90;99.90;;;;;;5100399;28;20183;-65
2023/12/08 11:09:06;;;;;;;0.35;0.35;;;3.90;99.90;;;;;;5095341;28;20580;-64
2023/12/08 11:11:32;;;;;;;0.00;0.00;;;3.90;99.90;;;;;;5095199;28;20266;-65
2023/12/08 11:14:08;;;;;;;0.00;0.00;;;4.00;99.90;;;;;;5099945;28;20211;-64
2023/12/08 11:16:41;;;;;;;0.00;0.00;;;4.00;99.90;;;;;;5101252;28;20279;-64
2023/12/08 11:19:08;;;;;;;0.00;0.00;;;4.10;99.90;;;;;;5100552;28;20237;-64
2023/12/08 11:21:35;;;;;;;0.63;0.63;;;4.20;99.90;;;;;;5107706;28;20180;-64
2023/12/08 11:24:01;;;;;;;0.00;0.00;;;4.20;99.90;;;;;;5094934;28;20176;-64
2023/12/08 11:26:37;;;;;;;0.00;0.00;;;4.40;99.90;;;;;;5095108;28;20734;-65
2023/12/08 11:29:13;;;;;;;0.03;0.03;;;4.50;99.90;;;;;;5094731;28;20171;-65
2023/12/08 11:31:59;;;;;;;0.20;0.20;;;4.60;99.90;;;;;;5094899;28;20507;-64
2023/12/08 11:34:34;;;;;;;0.30;0.30;;;4.70;99.90;;;;;;5094704;28;20215;-65
2023/12/08 11:37:01;;;;;;;0.00;0.00;;;4.80;99.90;;;;;;5094570;28;20247;-65
2023/12/08 11:39:43;;;;;;;0.00;0.00;;;4.90;99.90;;;;;;5094711;28;20179;-64
2023/12/08 11:42:27;;;;;;;0.00;0.00;;;5.00;99.90;;;;;;5093344;28;20542;-64
2023/12/08 11:44:56;;;;;;;0.32;0.32;;;5.00;99.90;;;;;;5094579;28;20188;-64
2023/12/08 11:47:24;;;;;;;0.00;0.00;;;5.10;99.90;;;;;;5094647;28;20639;-64
2023/12/08 11:49:51;;;;;;;0.80;0.52;;;5.10;99.90;;;;;;5094636;28;20164;-65
2023/12/08 11:52:26;;;;;;;0.60;0.60;;;5.10;99.90;;;;;;5094536;28;20208;-64
2023/12/08 11:55:19;;;;;;;1.65;0.98;;;5.10;99.90;;;;;;5094542;28;20221;-64
2023/12/08 11:57:54;;;;;;;0.22;0.22;;;5.10;99.90;;;;;;5094977;28;20263;-65
2023/12/08 12:00:21;;;;;;;0.00;0.00;;;5.10;99.90;;;;;;5094192;28;20224;-65
2023/12/08 12:02:48;;;;;;;0.00;0.00;;;5.10;99.90;;;;;;5094464;28;20187;-65
2023/12/08 12:05:14;;;;;;;0.00;0.00;;;5.10;99.90;;;;;;5094440;28;20212;-65
2023/12/08 12:07:42;;;;;;;0.10;0.10;;;5.10;99.90;;;;;;5094354;28;20176;-65
2023/12/08 12:10:10;;;;;;;0.00;0.00;;;5.10;99.90;;;;;;5093995;28;20531;-64
2023/12/08 12:12:40;;;;;;;0.25;0.25;;;5.10;99.90;;;;;;5094119;28;20603;-65
2023/12/08 12:15:08;;;;;;;0.73;0.73;;;5.10;99.90;;;;;;5092892;28;20588;-65
2023/12/08 12:17:34;;;;;;;0.52;0.52;;;5.10;99.90;;;;;;5094090;28;20172;-64
2023/12/08 12:20:00;;;;;;;2.08;0.73;;;5.10;99.90;;;;;;5107273;28;20262;-65
2023/12/08 12:22:25;;;;;;;0.00;0.00;;;5.20;99.90;;;;;;5114410;28;20220;-65
2023/12/08 12:24:51;;;;;;;0.05;0.05;;;5.20;99.90;;;;;;5114242;28;20225;-65
2023/12/08 12:27:16;;;;;;;0.30;0.30;;;5.20;99.90;;;;;;5113021;28;20202;-65
2023/12/08 12:29:42;;;;;;;0.35;0.17;;;5.20;99.90;;;;;;5114136;28;20203;-64
2023/12/08 12:32:08;;;;;;;0.00;0.00;;;5.30;99.90;;;;;;5113892;28;20258;-64
2023/12/08 12:34:38;;;;;;;0.00;0.00;;;5.30;99.90;;;;;;5113443;27;20568;-65
2023/12/08 12:37:05;;;;;;;0.00;0.00;;;5.30;99.90;;;;;;5108676;28;20218;-64
2023/12/08 12:39:31;;;;;;;0.08;0.08;;;5.30;99.90;;;;;;5113992;28;20225;-65
2023/12/08 12:41:58;;;;;;;0.00;0.00;;;5.30;99.90;;;;;;5113905;28;20643;-64
2023/12/08 12:44:37;;;;;;;0.10;0.10;;;5.30;99.90;;;;;;5093526;28;20176;-64
2023/12/08 12:47:02;;;;;;;0.10;0.10;;;5.30;99.90;;;;;;5093552;28;20646;-64
2023/12/08 12:49:28;;;;;;;0.32;0.32;;;5.30;99.90;;;;;;5093465;28;20184;-65
2023/12/08 12:51:53;;;;;;;0.13;0.13;;;5.40;99.90;;;;;;5112791;28;20203;-64
2023/12/08 12:54:34;;;;;;;0.00;0.00;;;5.40;99.90;;;;;;5112505;28;20271;-64